sensor_id;sensor_type;location;lat;lon;timestamp;P1;durP1;ratioP1;P2;durP2;ratioP2
46561;SDS011;32289;42.688;23.330;2022-11-11T00:00:07;47.85;;;20.70;;
46561;SDS011;32289;42.688;23.330;2022-11-11T00:03:48;53.13;;;22.60;;
46561;SDS011;32289;42.688;23.330;2022-11-11T00:07:33;40.17;;;19.38;;
46561;SDS011;32289;42.688;23.330;2022-11-11T00:11:14;45.42;;;20.42;;
46561;SDS011;32289;42.688;23.330;2022-11-11T00:14:55;42.42;;;19.17;;
46561;SDS011;32289;42.688;23.330;2022-11-11T00:18:36;45.72;;;20.45;;
46561;SDS011;32289;42.688;23.330;2022-11-11T00:22:36;46.47;;;19.90;;
46561;SDS011;32289;42.688;23.330;2022-11-11T00:26:35;44.50;;;19.23;;
46561;SDS011;32289;42.688;23.330;2022-11-11T00:30:16;34.88;;;16.52;;
46561;SDS011;32289;42.688;23.330;2022-11-11T00:33:57;40.70;;;17.13;;
46561;SDS011;32289;42.688;23.330;2022-11-11T00:37:38;46.17;;;18.92;;
46561;SDS011;32289;42.688;23.330;2022-11-11T00:41:20;43.25;;;18.20;;
46561;SDS011;32289;42.688;23.330;2022-11-11T00:45:02;39.65;;;17.60;;
46561;SDS011;32289;42.688;23.330;2022-11-11T00:48:43;47.70;;;18.00;;
46561;SDS011;32289;42.688;23.330;2022-11-11T00:52:45;39.10;;;18.33;;
46561;SDS011;32289;42.688;23.330;2022-11-11T00:56:26;41.03;;;19.13;;
46561;SDS011;32289;42.688;23.330;2022-11-11T01:00:07;40.38;;;18.48;;
46561;SDS011;32289;42.688;23.330;2022-11-11T01:03:50;43.53;;;19.63;;
46561;SDS011;32289;42.688;23.330;2022-11-11T01:07:31;42.83;;;20.13;;
46561;SDS011;32289;42.688;23.330;2022-11-11T01:11:15;40.95;;;19.88;;
46561;SDS011;32289;42.688;23.330;2022-11-11T01:14:58;38.90;;;17.52;;
46561;SDS011;32289;42.688;23.330;2022-11-11T01:18:39;37.33;;;18.60;;
46561;SDS011;32289;42.688;23.330;2022-11-11T01:22:20;37.83;;;18.13;;
46561;SDS011;32289;42.688;23.330;2022-11-11T01:26:01;41.00;;;18.58;;
46561;SDS011;32289;42.688;23.330;2022-11-11T01:29:44;39.60;;;19.13;;
46561;SDS011;32289;42.688;23.330;2022-11-11T01:33:25;44.85;;;16.25;;
46561;SDS011;32289;42.688;23.330;2022-11-11T01:37:07;46.17;;;19.42;;
46561;SDS011;32289;42.688;23.330;2022-11-11T01:40:47;35.85;;;15.27;;
46561;SDS011;32289;42.688;23.330;2022-11-11T01:44:45;35.33;;;15.27;;
46561;SDS011;32289;42.688;23.330;2022-11-11T01:52:30;28.90;;;12.40;;
46561;SDS011;32289;42.688;23.330;2022-11-11T01:56:14;30.75;;;12.95;;
46561;SDS011;32289;42.688;23.330;2022-11-11T01:59:59;34.65;;;12.93;;
46561;SDS011;32289;42.688;23.330;2022-11-11T02:03:43;27.85;;;12.75;;
46561;SDS011;32289;42.688;23.330;2022-11-11T02:07:47;24.40;;;11.45;;
46561;SDS011;32289;42.688;23.330;2022-11-11T02:11:28;23.00;;;11.05;;
46561;SDS011;32289;42.688;23.330;2022-11-11T02:15:32;34.47;;;12.98;;
46561;SDS011;32289;42.688;23.330;2022-11-11T02:19:13;31.55;;;12.95;;
46561;SDS011;32289;42.688;23.330;2022-11-11T02:23:03;34.25;;;14.20;;
46561;SDS011;32289;42.688;23.330;2022-11-11T02:26:45;31.85;;;12.35;;
46561;SDS011;32289;42.688;23.330;2022-11-11T02:30:27;34.33;;;14.75;;
46561;SDS011;32289;42.688;23.330;2022-11-11T02:34:08;27.10;;;12.32;;
46561;SDS011;32289;42.688;23.330;2022-11-11T02:37:50;38.55;;;12.77;;
46561;SDS011;32289;42.688;23.330;2022-11-11T02:41:32;26.45;;;12.32;;
46561;SDS011;32289;42.688;23.330;2022-11-11T02:45:31;32.28;;;13.95;;
46561;SDS011;32289;42.688;23.330;2022-11-11T02:49:12;32.67;;;12.90;;
46561;SDS011;32289;42.688;23.330;2022-11-11T02:52:53;30.42;;;12.98;;
46561;SDS011;32289;42.688;23.330;2022-11-11T02:56:33;32.10;;;13.57;;
46561;SDS011;32289;42.688;23.330;2022-11-11T03:00:33;35.72;;;15.93;;
46561;SDS011;32289;42.688;23.330;2022-11-11T03:04:13;38.03;;;15.50;;
46561;SDS011;32289;42.688;23.330;2022-11-11T03:07:54;32.10;;;15.80;;
46561;SDS011;32289;42.688;23.330;2022-11-11T03:11:35;42.58;;;18.67;;
46561;SDS011;32289;42.688;23.330;2022-11-11T03:15:17;35.05;;;15.57;;
46561;SDS011;32289;42.688;23.330;2022-11-11T03:18:58;35.33;;;17.90;;
46561;SDS011;32289;42.688;23.330;2022-11-11T03:22:38;33.03;;;15.80;;
46561;SDS011;32289;42.688;23.330;2022-11-11T03:26:19;36.08;;;17.30;;
46561;SDS011;32289;42.688;23.330;2022-11-11T03:30:00;36.13;;;17.90;;
46561;SDS011;32289;42.688;23.330;2022-11-11T03:33:41;32.95;;;15.55;;
46561;SDS011;32289;42.688;23.330;2022-11-11T03:37:21;42.63;;;16.30;;
46561;SDS011;32289;42.688;23.330;2022-11-11T03:41:20;37.65;;;16.30;;
46561;SDS011;32289;42.688;23.330;2022-11-11T03:45:02;41.80;;;15.45;;
46561;SDS011;32289;42.688;23.330;2022-11-11T03:48:43;35.08;;;16.90;;
46561;SDS011;32289;42.688;23.330;2022-11-11T03:52:24;28.85;;;15.00;;
46561;SDS011;32289;42.688;23.330;2022-11-11T03:56:05;36.60;;;16.92;;
46561;SDS011;32289;42.688;23.330;2022-11-11T03:59:45;37.33;;;15.45;;
46561;SDS011;32289;42.688;23.330;2022-11-11T04:03:26;38.58;;;16.42;;
46561;SDS011;32289;42.688;23.330;2022-11-11T04:07:25;36.47;;;15.68;;
46561;SDS011;32289;42.688;23.330;2022-11-11T04:11:42;33.45;;;14.88;;
46561;SDS011;32289;42.688;23.330;2022-11-11T04:15:25;32.60;;;14.23;;
46561;SDS011;32289;42.688;23.330;2022-11-11T04:19:26;31.75;;;13.43;;
46561;SDS011;32289;42.688;23.330;2022-11-11T04:23:25;33.95;;;14.57;;
46561;SDS011;32289;42.688;23.330;2022-11-11T04:27:07;29.48;;;14.23;;
46561;SDS011;32289;42.688;23.330;2022-11-11T04:30:50;30.60;;;13.60;;
46561;SDS011;32289;42.688;23.330;2022-11-11T04:34:30;31.38;;;13.15;;
46561;SDS011;32289;42.688;23.330;2022-11-11T04:38:11;38.63;;;13.50;;
46561;SDS011;32289;42.688;23.330;2022-11-11T04:42:10;28.48;;;12.27;;
46561;SDS011;32289;42.688;23.330;2022-11-11T04:45:51;29.85;;;12.10;;
46561;SDS011;32289;42.688;23.330;2022-11-11T04:49:32;34.22;;;14.27;;
46561;SDS011;32289;42.688;23.330;2022-11-11T04:53:13;33.80;;;10.98;;
46561;SDS011;32289;42.688;23.330;2022-11-11T04:56:54;26.50;;;12.13;;
46561;SDS011;32289;42.688;23.330;2022-11-11T05:00:37;24.88;;;11.15;;
46561;SDS011;32289;42.688;23.330;2022-11-11T05:04:18;26.20;;;12.90;;
46561;SDS011;32289;42.688;23.330;2022-11-11T05:07:58;26.77;;;11.60;;
46561;SDS011;32289;42.688;23.330;2022-11-11T05:11:58;26.17;;;11.82;;
46561;SDS011;32289;42.688;23.330;2022-11-11T05:15:38;22.27;;;11.15;;
46561;SDS011;32289;42.688;23.330;2022-11-11T05:19:38;24.52;;;10.73;;
46561;SDS011;32289;42.688;23.330;2022-11-11T05:23:37;18.83;;;9.15;;
46561;SDS011;32289;42.688;23.330;2022-11-11T05:27:37;23.23;;;11.02;;
46561;SDS011;32289;42.688;23.330;2022-11-11T05:31:18;21.90;;;10.20;;
46561;SDS011;32289;42.688;23.330;2022-11-11T05:34:59;23.50;;;9.88;;
46561;SDS011;32289;42.688;23.330;2022-11-11T05:38:40;22.30;;;10.23;;
46561;SDS011;32289;42.688;23.330;2022-11-11T05:42:20;21.08;;;9.55;;
46561;SDS011;32289;42.688;23.330;2022-11-11T05:46:02;21.08;;;8.82;;
46561;SDS011;32289;42.688;23.330;2022-11-11T05:49:48;17.30;;;9.23;;
46561;SDS011;32289;42.688;23.330;2022-11-11T05:53:28;18.05;;;8.63;;
46561;SDS011;32289;42.688;23.330;2022-11-11T05:57:09;16.45;;;8.65;;
46561;SDS011;32289;42.688;23.330;2022-11-11T06:00:51;20.73;;;9.45;;
46561;SDS011;32289;42.688;23.330;2022-11-11T06:04:33;21.30;;;10.23;;
46561;SDS011;32289;42.688;23.330;2022-11-11T06:08:14;21.80;;;9.00;;
46561;SDS011;32289;42.688;23.330;2022-11-11T06:11:55;17.40;;;7.90;;
46561;SDS011;32289;42.688;23.330;2022-11-11T06:15:36;21.42;;;10.07;;
46561;SDS011;32289;42.688;23.330;2022-11-11T06:19:17;19.98;;;9.60;;
46561;SDS011;32289;42.688;23.330;2022-11-11T06:22:58;16.77;;;8.45;;
46561;SDS011;32289;42.688;23.330;2022-11-11T06:26:39;19.95;;;9.05;;
46561;SDS011;32289;42.688;23.330;2022-11-11T06:30:20;19.23;;;8.68;;
46561;SDS011;32289;42.688;23.330;2022-11-11T06:34:01;16.30;;;8.40;;
46561;SDS011;32289;42.688;23.330;2022-11-11T06:37:41;21.13;;;9.20;;
46561;SDS011;32289;42.688;23.330;2022-11-11T06:41:22;21.90;;;8.50;;
46561;SDS011;32289;42.688;23.330;2022-11-11T06:45:06;23.70;;;9.23;;
46561;SDS011;32289;42.688;23.330;2022-11-11T06:48:47;19.13;;;8.82;;
46561;SDS011;32289;42.688;23.330;2022-11-11T06:52:28;18.08;;;9.20;;
46561;SDS011;32289;42.688;23.330;2022-11-11T06:56:08;20.20;;;8.90;;
46561;SDS011;32289;42.688;23.330;2022-11-11T06:59:51;19.58;;;8.25;;
46561;SDS011;32289;42.688;23.330;2022-11-11T07:03:32;19.20;;;8.48;;
46561;SDS011;32289;42.688;23.330;2022-11-11T07:07:13;17.20;;;8.30;;
46561;SDS011;32289;42.688;23.330;2022-11-11T07:10:55;18.35;;;8.35;;
46561;SDS011;32289;42.688;23.330;2022-11-11T07:14:36;21.15;;;7.88;;
46561;SDS011;32289;42.688;23.330;2022-11-11T07:18:16;20.15;;;9.38;;
46561;SDS011;32289;42.688;23.330;2022-11-11T07:21:57;19.52;;;8.93;;
46561;SDS011;32289;42.688;23.330;2022-11-11T07:25:38;21.60;;;8.23;;
46561;SDS011;32289;42.688;23.330;2022-11-11T07:29:19;22.58;;;8.48;;
46561;SDS011;32289;42.688;23.330;2022-11-11T07:32:59;23.15;;;9.48;;
46561;SDS011;32289;42.688;23.330;2022-11-11T07:36:40;19.27;;;7.90;;
46561;SDS011;32289;42.688;23.330;2022-11-11T07:40:21;24.55;;;9.02;;
46561;SDS011;32289;42.688;23.330;2022-11-11T07:44:01;15.18;;;7.03;;
46561;SDS011;32289;42.688;23.330;2022-11-11T07:47:42;20.80;;;9.23;;
46561;SDS011;32289;42.688;23.330;2022-11-11T07:51:23;19.40;;;8.63;;
46561;SDS011;32289;42.688;23.330;2022-11-11T07:55:04;17.25;;;7.95;;
46561;SDS011;32289;42.688;23.330;2022-11-11T07:58:45;17.83;;;7.68;;
46561;SDS011;32289;42.688;23.330;2022-11-11T08:02:26;15.85;;;7.55;;
46561;SDS011;32289;42.688;23.330;2022-11-11T08:06:07;18.52;;;7.28;;
46561;SDS011;32289;42.688;23.330;2022-11-11T08:09:47;18.65;;;8.60;;
46561;SDS011;32289;42.688;23.330;2022-11-11T08:13:28;16.50;;;7.68;;
46561;SDS011;32289;42.688;23.330;2022-11-11T08:17:20;20.48;;;8.80;;
46561;SDS011;32289;42.688;23.330;2022-11-11T08:21:01;15.88;;;7.57;;
46561;SDS011;32289;42.688;23.330;2022-11-11T08:24:43;22.02;;;10.13;;
46561;SDS011;32289;42.688;23.330;2022-11-11T08:28:24;15.10;;;7.20;;
46561;SDS011;32289;42.688;23.330;2022-11-11T08:32:04;18.58;;;7.88;;
46561;SDS011;32289;42.688;23.330;2022-11-11T08:35:45;19.55;;;8.43;;
46561;SDS011;32289;42.688;23.330;2022-11-11T08:39:26;15.50;;;5.88;;
46561;SDS011;32289;42.688;23.330;2022-11-11T08:43:07;13.57;;;7.18;;
46561;SDS011;32289;42.688;23.330;2022-11-11T08:46:47;11.88;;;6.05;;
46561;SDS011;32289;42.688;23.330;2022-11-11T08:50:28;14.02;;;7.80;;
46561;SDS011;32289;42.688;23.330;2022-11-11T08:54:09;16.52;;;7.13;;
46561;SDS011;32289;42.688;23.330;2022-11-11T08:58:00;18.05;;;6.85;;
46561;SDS011;32289;42.688;23.330;2022-11-11T09:01:42;15.27;;;6.43;;
46561;SDS011;32289;42.688;23.330;2022-11-11T09:05:23;16.85;;;7.35;;
46561;SDS011;32289;42.688;23.330;2022-11-11T09:09:04;16.58;;;7.15;;
46561;SDS011;32289;42.688;23.330;2022-11-11T09:12:44;15.25;;;6.28;;
46561;SDS011;32289;42.688;23.330;2022-11-11T09:16:25;16.35;;;6.72;;
46561;SDS011;32289;42.688;23.330;2022-11-11T09:20:06;12.93;;;6.50;;
46561;SDS011;32289;42.688;23.330;2022-11-11T09:23:47;9.80;;;5.65;;
46561;SDS011;32289;42.688;23.330;2022-11-11T09:27:28;15.02;;;5.45;;
46561;SDS011;32289;42.688;23.330;2022-11-11T09:31:09;10.50;;;5.53;;
46561;SDS011;32289;42.688;23.330;2022-11-11T09:34:49;11.57;;;6.05;;
46561;SDS011;32289;42.688;23.330;2022-11-11T09:38:30;14.13;;;5.45;;
46561;SDS011;32289;42.688;23.330;2022-11-11T09:50:13;7.85;;;4.55;;
46561;SDS011;32289;42.688;23.330;2022-11-11T09:53:59;17.02;;;5.82;;
46561;SDS011;32289;42.688;23.330;2022-11-11T10:01:35;12.35;;;5.32;;
46561;SDS011;32289;42.688;23.330;2022-11-11T10:09:40;11.88;;;5.65;;
46561;SDS011;32289;42.688;23.330;2022-11-11T10:13:33;10.57;;;5.90;;
46561;SDS011;32289;42.688;23.330;2022-11-11T10:21:22;9.10;;;4.97;;
46561;SDS011;32289;42.688;23.330;2022-11-11T10:25:20;10.13;;;5.15;;
46561;SDS011;32289;42.688;23.330;2022-11-11T10:29:04;8.48;;;4.50;;
46561;SDS011;32289;42.688;23.330;2022-11-11T10:32:58;15.68;;;5.10;;
46561;SDS011;32289;42.688;23.330;2022-11-11T10:36:49;9.48;;;5.07;;
46561;SDS011;32289;42.688;23.330;2022-11-11T10:40:35;8.73;;;4.50;;
46561;SDS011;32289;42.688;23.330;2022-11-11T10:48:08;12.93;;;4.10;;
46561;SDS011;32289;42.688;23.330;2022-11-11T10:52:02;13.93;;;5.65;;
46561;SDS011;32289;42.688;23.330;2022-11-11T10:55:54;9.13;;;4.60;;
46561;SDS011;32289;42.688;23.330;2022-11-11T11:00:03;8.07;;;3.35;;
46561;SDS011;32289;42.688;23.330;2022-11-11T11:03:48;11.05;;;5.30;;
46561;SDS011;32289;42.688;23.330;2022-11-11T11:07:36;9.77;;;4.97;;
46561;SDS011;32289;42.688;23.330;2022-11-11T11:11:38;6.88;;;3.88;;
46561;SDS011;32289;42.688;23.330;2022-11-11T11:15:24;9.07;;;4.75;;
46561;SDS011;32289;42.688;23.330;2022-11-11T11:22:59;9.38;;;4.30;;
46561;SDS011;32289;42.688;23.330;2022-11-11T11:26:42;15.77;;;5.55;;
46561;SDS011;32289;42.688;23.330;2022-11-11T11:30:24;13.90;;;5.00;;
46561;SDS011;32289;42.688;23.330;2022-11-11T11:34:05;9.75;;;4.28;;
46561;SDS011;32289;42.688;23.330;2022-11-11T11:37:48;6.57;;;3.42;;
46561;SDS011;32289;42.688;23.330;2022-11-11T11:45:24;9.45;;;5.15;;
46561;SDS011;32289;42.688;23.330;2022-11-11T11:49:11;6.72;;;3.75;;
46561;SDS011;32289;42.688;23.330;2022-11-11T11:56:43;9.00;;;3.65;;
46561;SDS011;32289;42.688;23.330;2022-11-11T12:00:28;7.03;;;3.58;;
46561;SDS011;32289;42.688;23.330;2022-11-11T12:04:26;13.35;;;5.90;;
46561;SDS011;32289;42.688;23.330;2022-11-11T12:24:26;16.73;;;5.60;;
46561;SDS011;32289;42.688;23.330;2022-11-11T12:28:25;7.55;;;3.60;;
46561;SDS011;32289;42.688;23.330;2022-11-11T12:36:38;6.72;;;3.42;;
46561;SDS011;32289;42.688;23.330;2022-11-11T12:40:45;10.65;;;3.35;;
46561;SDS011;32289;42.688;23.330;2022-11-11T12:56:20;10.50;;;4.53;;
46561;SDS011;32289;42.688;23.330;2022-11-11T13:00:22;9.35;;;3.60;;
46561;SDS011;32289;42.688;23.330;2022-11-11T13:08:05;10.48;;;3.97;;
46561;SDS011;32289;42.688;23.330;2022-11-11T13:15:47;9.27;;;3.50;;
46561;SDS011;32289;42.688;23.330;2022-11-11T13:19:31;6.85;;;3.67;;
46561;SDS011;32289;42.688;23.330;2022-11-11T13:23:20;9.18;;;3.33;;
46561;SDS011;32289;42.688;23.330;2022-11-11T13:27:13;11.25;;;4.65;;
46561;SDS011;32289;42.688;23.330;2022-11-11T13:31:24;6.85;;;3.58;;
46561;SDS011;32289;42.688;23.330;2022-11-11T13:39:33;7.07;;;3.53;;
46561;SDS011;32289;42.688;23.330;2022-11-11T13:43:38;7.65;;;3.55;;
46561;SDS011;32289;42.688;23.330;2022-11-11T13:47:43;11.65;;;4.68;;
46561;SDS011;32289;42.688;23.330;2022-11-11T13:55:36;7.97;;;4.15;;
46561;SDS011;32289;42.688;23.330;2022-11-11T13:59:38;8.45;;;4.80;;
46561;SDS011;32289;42.688;23.330;2022-11-11T14:07:06;8.73;;;4.18;;
46561;SDS011;32289;42.688;23.330;2022-11-11T14:10:49;11.85;;;4.35;;
46561;SDS011;32289;42.688;23.330;2022-11-11T14:22:01;10.73;;;4.65;;
46561;SDS011;32289;42.688;23.330;2022-11-11T14:29:52;9.30;;;4.53;;
46561;SDS011;32289;42.688;23.330;2022-11-11T14:41:46;7.13;;;3.88;;
46561;SDS011;32289;42.688;23.330;2022-11-11T14:49:09;8.82;;;4.13;;
46561;SDS011;32289;42.688;23.330;2022-11-11T14:52:49;9.75;;;4.90;;
46561;SDS011;32289;42.688;23.330;2022-11-11T14:56:31;10.10;;;4.82;;
46561;SDS011;32289;42.688;23.330;2022-11-11T15:00:18;11.82;;;5.68;;
46561;SDS011;32289;42.688;23.330;2022-11-11T15:04:00;11.48;;;4.68;;
46561;SDS011;32289;42.688;23.330;2022-11-11T15:15:40;11.90;;;5.72;;
46561;SDS011;32289;42.688;23.330;2022-11-11T15:20:04;10.50;;;5.05;;
46561;SDS011;32289;42.688;23.330;2022-11-11T15:36:23;11.23;;;5.30;;
46561;SDS011;32289;42.688;23.330;2022-11-11T15:40:22;10.65;;;4.78;;
46561;SDS011;32289;42.688;23.330;2022-11-11T15:44:07;10.07;;;5.20;;
46561;SDS011;32289;42.688;23.330;2022-11-11T15:48:01;16.52;;;6.75;;
46561;SDS011;32289;42.688;23.330;2022-11-11T15:51:42;12.07;;;5.90;;
46561;SDS011;32289;42.688;23.330;2022-11-11T15:55:24;13.95;;;5.93;;
46561;SDS011;32289;42.688;23.330;2022-11-11T15:59:16;15.18;;;7.10;;
46561;SDS011;32289;42.688;23.330;2022-11-11T16:03:22;13.90;;;5.47;;
46561;SDS011;32289;42.688;23.330;2022-11-11T16:07:16;14.88;;;6.00;;
46561;SDS011;32289;42.688;23.330;2022-11-11T16:11:01;14.10;;;6.43;;
46561;SDS011;32289;42.688;23.330;2022-11-11T16:14:42;14.70;;;5.68;;
46561;SDS011;32289;42.688;23.330;2022-11-11T16:18:33;15.18;;;6.78;;
46561;SDS011;32289;42.688;23.330;2022-11-11T16:22:23;11.40;;;6.18;;
46561;SDS011;32289;42.688;23.330;2022-11-11T16:26:11;17.05;;;7.85;;
46561;SDS011;32289;42.688;23.330;2022-11-11T16:29:52;15.15;;;7.00;;
46561;SDS011;32289;42.688;23.330;2022-11-11T16:33:33;15.25;;;6.88;;
46561;SDS011;32289;42.688;23.330;2022-11-11T16:37:15;18.45;;;7.75;;
46561;SDS011;32289;42.688;23.330;2022-11-11T16:40:56;23.17;;;9.68;;
46561;SDS011;32289;42.688;23.330;2022-11-11T16:44:46;21.48;;;9.75;;
46561;SDS011;32289;42.688;23.330;2022-11-11T16:52:17;20.80;;;8.20;;
46561;SDS011;32289;42.688;23.330;2022-11-11T16:56:00;22.42;;;7.90;;
46561;SDS011;32289;42.688;23.330;2022-11-11T16:59:46;17.60;;;7.65;;
46561;SDS011;32289;42.688;23.330;2022-11-11T17:03:34;21.33;;;7.80;;
46561;SDS011;32289;42.688;23.330;2022-11-11T17:07:32;20.38;;;8.27;;
46561;SDS011;32289;42.688;23.330;2022-11-11T17:15:25;17.33;;;7.18;;
46561;SDS011;32289;42.688;23.330;2022-11-11T17:19:06;21.70;;;9.18;;
46561;SDS011;32289;42.688;23.330;2022-11-11T17:22:51;19.02;;;7.60;;
46561;SDS011;32289;42.688;23.330;2022-11-11T17:26:36;16.90;;;8.27;;
46561;SDS011;32289;42.688;23.330;2022-11-11T17:30:17;19.77;;;7.63;;
46561;SDS011;32289;42.688;23.330;2022-11-11T17:33:58;18.13;;;8.02;;
46561;SDS011;32289;42.688;23.330;2022-11-11T17:37:39;15.50;;;7.50;;
46561;SDS011;32289;42.688;23.330;2022-11-11T17:41:19;18.60;;;7.18;;
46561;SDS011;32289;42.688;23.330;2022-11-11T17:45:00;14.60;;;7.25;;
46561;SDS011;32289;42.688;23.330;2022-11-11T17:48:42;17.75;;;8.80;;
46561;SDS011;32289;42.688;23.330;2022-11-11T17:52:23;17.45;;;8.10;;
46561;SDS011;32289;42.688;23.330;2022-11-11T17:56:04;20.05;;;8.13;;
46561;SDS011;32289;42.688;23.330;2022-11-11T17:59:46;30.00;;;8.32;;
46561;SDS011;32289;42.688;23.330;2022-11-11T18:03:30;16.75;;;7.53;;
46561;SDS011;32289;42.688;23.330;2022-11-11T18:07:13;13.23;;;6.80;;
46561;SDS011;32289;42.688;23.330;2022-11-11T18:11:05;10.32;;;6.30;;
46561;SDS011;32289;42.688;23.330;2022-11-11T18:14:50;15.90;;;7.43;;
46561;SDS011;32289;42.688;23.330;2022-11-11T18:18:30;15.82;;;8.13;;
46561;SDS011;32289;42.688;23.330;2022-11-11T18:22:11;14.98;;;7.10;;
46561;SDS011;32289;42.688;23.330;2022-11-11T18:25:53;18.13;;;8.23;;
46561;SDS011;32289;42.688;23.330;2022-11-11T18:29:35;16.63;;;7.70;;
46561;SDS011;32289;42.688;23.330;2022-11-11T18:33:16;16.17;;;8.10;;
46561;SDS011;32289;42.688;23.330;2022-11-11T18:36:57;18.00;;;8.10;;
46561;SDS011;32289;42.688;23.330;2022-11-11T18:40:38;19.50;;;9.15;;
46561;SDS011;32289;42.688;23.330;2022-11-11T18:44:19;15.50;;;8.38;;
46561;SDS011;32289;42.688;23.330;2022-11-11T18:47:59;17.63;;;8.10;;
46561;SDS011;32289;42.688;23.330;2022-11-11T18:51:40;17.40;;;8.52;;
46561;SDS011;32289;42.688;23.330;2022-11-11T18:55:21;14.50;;;7.32;;
46561;SDS011;32289;42.688;23.330;2022-11-11T18:59:02;17.23;;;8.45;;
46561;SDS011;32289;42.688;23.330;2022-11-11T19:02:43;18.33;;;7.05;;
46561;SDS011;32289;42.688;23.330;2022-11-11T19:06:24;16.55;;;7.55;;
46561;SDS011;32289;42.688;23.330;2022-11-11T19:10:06;18.23;;;9.27;;
46561;SDS011;32289;42.688;23.330;2022-11-11T19:13:47;17.83;;;8.85;;
46561;SDS011;32289;42.688;23.330;2022-11-11T19:17:28;18.83;;;7.97;;
46561;SDS011;32289;42.688;23.330;2022-11-11T19:21:14;17.15;;;9.15;;
46561;SDS011;32289;42.688;23.330;2022-11-11T19:24:56;22.25;;;9.30;;
46561;SDS011;32289;42.688;23.330;2022-11-11T19:28:37;23.60;;;8.82;;
46561;SDS011;32289;42.688;23.330;2022-11-11T19:32:18;21.40;;;8.95;;
46561;SDS011;32289;42.688;23.330;2022-11-11T19:36:01;18.75;;;8.35;;
46561;SDS011;32289;42.688;23.330;2022-11-11T19:39:46;21.77;;;8.70;;
46561;SDS011;32289;42.688;23.330;2022-11-11T19:43:26;17.40;;;7.72;;
46561;SDS011;32289;42.688;23.330;2022-11-11T19:47:07;16.92;;;8.48;;
46561;SDS011;32289;42.688;23.330;2022-11-11T19:50:48;17.77;;;7.40;;
46561;SDS011;32289;42.688;23.330;2022-11-11T19:54:28;20.83;;;9.25;;
46561;SDS011;32289;42.688;23.330;2022-11-11T19:58:09;19.50;;;8.20;;
46561;SDS011;32289;42.688;23.330;2022-11-11T20:01:50;17.60;;;8.25;;
46561;SDS011;32289;42.688;23.330;2022-11-11T20:05:33;15.30;;;8.68;;
46561;SDS011;32289;42.688;23.330;2022-11-11T20:09:16;20.17;;;8.10;;
46561;SDS011;32289;42.688;23.330;2022-11-11T20:12:57;22.70;;;8.70;;
46561;SDS011;32289;42.688;23.330;2022-11-11T20:16:37;22.35;;;8.00;;
46561;SDS011;32289;42.688;23.330;2022-11-11T20:20:18;20.52;;;8.02;;
46561;SDS011;32289;42.688;23.330;2022-11-11T20:23:59;20.15;;;8.27;;
46561;SDS011;32289;42.688;23.330;2022-11-11T20:27:40;22.45;;;8.73;;
46561;SDS011;32289;42.688;23.330;2022-11-11T20:31:20;23.73;;;9.60;;
46561;SDS011;32289;42.688;23.330;2022-11-11T20:35:02;22.35;;;10.40;;
46561;SDS011;32289;42.688;23.330;2022-11-11T20:38:45;21.42;;;9.93;;
46561;SDS011;32289;42.688;23.330;2022-11-11T20:42:26;34.58;;;9.73;;
46561;SDS011;32289;42.688;23.330;2022-11-11T20:46:07;17.95;;;8.70;;
46561;SDS011;32289;42.688;23.330;2022-11-11T20:49:50;19.13;;;8.85;;
46561;SDS011;32289;42.688;23.330;2022-11-11T20:53:31;21.52;;;9.00;;
46561;SDS011;32289;42.688;23.330;2022-11-11T20:57:12;18.38;;;8.88;;
46561;SDS011;32289;42.688;23.330;2022-11-11T21:00:59;22.92;;;10.00;;
46561;SDS011;32289;42.688;23.330;2022-11-11T21:04:44;26.15;;;10.20;;
46561;SDS011;32289;42.688;23.330;2022-11-11T21:08:25;16.45;;;8.25;;
46561;SDS011;32289;42.688;23.330;2022-11-11T21:12:05;22.80;;;10.27;;
46561;SDS011;32289;42.688;23.330;2022-11-11T21:15:46;20.75;;;9.38;;
46561;SDS011;32289;42.688;23.330;2022-11-11T21:19:28;21.17;;;9.05;;
46561;SDS011;32289;42.688;23.330;2022-11-11T21:23:09;21.20;;;10.35;;
46561;SDS011;32289;42.688;23.330;2022-11-11T21:26:50;24.38;;;9.55;;
46561;SDS011;32289;42.688;23.330;2022-11-11T21:30:32;27.35;;;10.95;;
46561;SDS011;32289;42.688;23.330;2022-11-11T21:34:14;21.70;;;8.82;;
46561;SDS011;32289;42.688;23.330;2022-11-11T21:37:55;22.98;;;8.70;;
46561;SDS011;32289;42.688;23.330;2022-11-11T21:41:36;18.95;;;9.13;;
46561;SDS011;32289;42.688;23.330;2022-11-11T21:45:18;21.52;;;9.13;;
46561;SDS011;32289;42.688;23.330;2022-11-11T21:48:59;18.63;;;8.35;;
46561;SDS011;32289;42.688;23.330;2022-11-11T21:52:40;19.92;;;7.95;;
46561;SDS011;32289;42.688;23.330;2022-11-11T21:56:21;20.48;;;8.50;;
46561;SDS011;32289;42.688;23.330;2022-11-11T22:00:04;19.13;;;9.32;;
46561;SDS011;32289;42.688;23.330;2022-11-11T22:03:47;29.77;;;10.48;;
46561;SDS011;32289;42.688;23.330;2022-11-11T22:07:29;15.75;;;8.55;;
46561;SDS011;32289;42.688;23.330;2022-11-11T22:11:11;18.67;;;8.57;;
46561;SDS011;32289;42.688;23.330;2022-11-11T22:14:53;28.58;;;10.95;;
46561;SDS011;32289;42.688;23.330;2022-11-11T22:18:34;19.60;;;9.10;;
46561;SDS011;32289;42.688;23.330;2022-11-11T22:22:15;19.45;;;8.68;;
46561;SDS011;32289;42.688;23.330;2022-11-11T22:26:03;19.55;;;8.45;;
46561;SDS011;32289;42.688;23.330;2022-11-11T22:29:45;19.70;;;8.88;;
46561;SDS011;32289;42.688;23.330;2022-11-11T22:33:26;24.80;;;9.35;;
46561;SDS011;32289;42.688;23.330;2022-11-11T22:37:07;20.13;;;8.73;;
46561;SDS011;32289;42.688;23.330;2022-11-11T22:40:47;25.10;;;10.23;;
46561;SDS011;32289;42.688;23.330;2022-11-11T22:44:28;24.98;;;10.25;;
46561;SDS011;32289;42.688;23.330;2022-11-11T22:48:09;16.95;;;8.02;;
46561;SDS011;32289;42.688;23.330;2022-11-11T22:51:49;20.45;;;9.32;;
46561;SDS011;32289;42.688;23.330;2022-11-11T22:55:30;20.52;;;9.20;;
46561;SDS011;32289;42.688;23.330;2022-11-11T22:59:11;20.48;;;8.35;;
46561;SDS011;32289;42.688;23.330;2022-11-11T23:02:51;28.05;;;9.40;;
46561;SDS011;32289;42.688;23.330;2022-11-11T23:06:33;25.20;;;9.05;;
46561;SDS011;32289;42.688;23.330;2022-11-11T23:10:15;20.15;;;9.50;;
46561;SDS011;32289;42.688;23.330;2022-11-11T23:13:56;27.60;;;9.80;;
46561;SDS011;32289;42.688;23.330;2022-11-11T23:17:39;21.48;;;9.18;;
46561;SDS011;32289;42.688;23.330;2022-11-11T23:21:21;22.52;;;9.73;;
46561;SDS011;32289;42.688;23.330;2022-11-11T23:25:03;21.67;;;8.85;;
46561;SDS011;32289;42.688;23.330;2022-11-11T23:28:44;20.10;;;8.00;;
46561;SDS011;32289;42.688;23.330;2022-11-11T23:32:25;21.23;;;9.25;;
46561;SDS011;32289;42.688;23.330;2022-11-11T23:36:07;21.50;;;8.88;;
46561;SDS011;32289;42.688;23.330;2022-11-11T23:39:49;21.50;;;9.60;;
46561;SDS011;32289;42.688;23.330;2022-11-11T23:43:30;23.00;;;9.23;;
46561;SDS011;32289;42.688;23.330;2022-11-11T23:47:11;21.58;;;9.38;;
46561;SDS011;32289;42.688;23.330;2022-11-11T23:50:52;20.85;;;9.40;;
46561;SDS011;32289;42.688;23.330;2022-11-11T23:54:33;19.55;;;8.95;;
46561;SDS011;32289;42.688;23.330;2022-11-11T23:58:14;27.13;;;9.77;;
